メインページ
METAR-TAF:

METAR-TAF

空港 :

ジブラルタル国際空港

ジブラルタル, ジブラルタル

緯度: 36-09N, 経度: 005-21W, 海抜: 5m

現時点の気象観測

当レポートは42分前の13:50(UTC)に作成
西/南西の風 9kt
気温 16°C
湿度 77%
気圧 1004 hPa
視程10km以上
高度2000ftの雲はほとんどない, 積乱雲.
高度8000ftの雲は散在している

METAR: LXGB 191350Z 24009KT 9999 FEW020CB SCT080 16/12 Q1004 NOSIG

時間: 15:32 (14:32 UTC)

予報

当レポートは1時間47分前の12:45(UTC)に作成
予報は19日の 12時(UTC)から 19日の 21時(UTC)まで有効
南西の風 12kt
視程10km以上
高度2000ftの雲はほとんどない
高度3500ftの雲は散在している
確率 40% :
19日の 12時(UTC)から 19日の 15時(UTC)まで一時的に
南西の風 16kt、最大26ktの突風を伴う
視程: 6000m
高度2000ftの千切れ雲あり, 積乱雲.
激しい雷雨, 雨

TAF: LXGB 191245Z 1912/1921 23012KT 9999 FEW020 SCT035 520002 PROB40 TEMPO 1912/1915 23016G26KT 6000 TSRA BKN020CB 560002

4,000以上の空港の気象観測と天気予報(METAR報とTAF報)

利用可能な観測所は地図上に黄色い丸と赤い丸で示す。

丸の上にカーソルを重ねると観測所名を参照できる。

次にクリックすると気象観測と天気予報を参照できる。

マップの切り替え:黒色「×」印の緑ボタンをクリックして拡大、「-」印の緑ボタンをクリックして縮小、緑色の三角印をクリックして隣りの地図に切り替え


METAR-TAF: